Sturgeon Bay, WI (54235)

7:54 AM CDT on July 29, 2014 (GMT -0500)
Leif Everson Observatory (KWISTURG1) Elev 636 ft | 44.83 °N, 87.34 °W | Change Station

Current weather conditions updated 1 minute ago

Scattered Clouds
Scattered Clouds
61.2 °F
Feels Like 61.2 °F
N
6.0
Wind Variable Wind from North
Gusts 7.0 mph

Today is forecast to be Warmer than yesterday. Showers and thunderstorms late.

Today
High -- | Low -- °F
--% Chance of Precip.
Yesterday
High -- | Low -- °F
Precip. -- in
5:32 AM 8:19 PM
Waxing Crescent, 6% visible
Pressure 30.01 in
Visibility 10.0 miles
Clouds Scattered Clouds 11000 ft
Dew Point 56 °F
Humidity 84%
Rainfall 0.00 in
Snow Depth Not available.
UV 0.7 out of 12
Pollen 7.00 out of 12
Air Quality Not available.
Flu Activity Not available.
METAR KSUE 291235Z AUTO 33007KT 10SM SCT110 16/12 A3001 RMK AO1

More Conditions Fewer Conditions

Pressure 30.01 in
Visibility 10.0 miles
Clouds Scattered Clouds 11000 ft
Dew Point 56 °F
Humidity 84%
Rainfall 0.00 in
Snow Depth Not available.
UV 0.7 out of 12
Pollen 7.00 out of 12
Air Quality Not available.
Flu Activity Not available.
METAR KSUE 291235Z AUTO 33007KT 10SM SCT110 16/12 A3001 RMK AO1

More Conditions Fewer Conditions

10-Day Weather Forecast

Almanac

Astronomy

Jul. 29, 2014 Rise Set
Actual Time 5:32 AM CDT 8:19 PM CDT
Civil Twilight 4:58 AM CDT 8:53 PM CDT
Nautical Twilight 4:14 AM CDT 9:36 PM CDT
Astronomical Twilight 3:24 AM CDT 10:25 PM CDT
Moon 8:17 AM CDT 9:21 PM CDT
Length of Visible Light 15h 55m
Length of Day
14h 47m
Tomorrow will be 2m 18s shorter.
Waxing Crescent, 6% of the Moon is Illuminated
Today
Waxing Crescent
Aug 3
First Quarter
Aug 10
Full
Aug 17
Last Quarter
Aug 25
New

Today's Extremes

State Highs State Lows

Community

WunderPhotos

Upload Photos

1,738,705 photos uploaded!

Nearby

Snow Depth

Station Depth Elevation
No new snow has been reported.

Earthquake Activity

City Distance Mag. Time & Date
No recent earthquake activity has been reported nearby.
Minimum magnitude displayed is 2.5.

Coastal Water Temperatures

Place Temperature
No Stations Reporting

Nearby Weather Stations

Station Location Temp. Dew Point Humidity Wind Precip. Elev Updated Type
Leif Everson Observatory, Sturgeon Bay, WI 61.2 °F 56 °F 84% North  at  6.0 mph 0.00 in / hr 636 ft 7:52 AM CDT Normal
Egg Harbor WI, Egg Harbor, WI 61.3 °F 59 °F 92% NNE  at  0.0 mph 0.00 in / hr 650 ft 7:53 AM CDT Normal
MARITIME , Oconto, WI 61 °F - - NW  at  13 mph 0.00 in / hr 582 ft 7:00 AM CDT MADIS
Tyco Fire Protection, Marinette, WI 60.3 °F 56 °F 86% NW  at  5.0 mph 0.00 in / hr 617 ft 7:52 AM CDT Normal

Show More Stations Show Fewer Stations